Hong Kong International Airport
VHHH : now visible

Airfield :











YOU CAN JOIN US ON...

 
LOGIN :

Register | Disclaimer

   EN    FR    IT 

 









Legend :    VFR   Marginal VFR   IFR   Intensive IFR   Very Intensive IFR
Visi :
Ceiling :
>= 8 km
>= 3000ft
5 to 8 km
1000 to 3000 ft
1500m to 5 km
500 to 1000 ft
800 to 1500m
200 to 500 ft
< 800m
< 200 ft
Symbols :   Thunderstorms  Fog  Heavy snow  Heavy precipitations  Wind > 20 kt






- Airport Elevation : 28 ft
- IATA code : HKG


VHHH - Hong Kong International

CURRENT METAR :
  • 022100Z 10006KT 9999 -SHRA FEW020 SCT035 29/26 Q0996 NOSIG

EXPIRED METARs :
  • 022030Z 07007KT 9999 VCSH FEW020 29/26 Q0996 NOSIG
  • 022000Z 10006KT 070V140 9999 FEW025 29/26 Q0996 NOSIG
  • 021930Z VRB05KT 9999 FEW025 29/26 Q0996 NOSIG
  • 021900Z 12006KT 070V170 9999 FEW025 29/25 Q0997 NOSIG
  • 021830Z VRB03KT 9999 FEW025 29/25 Q0997 NOSIG

TAF TAF VHHH
Valid from the 02 at 18:00 until the 04 at 00:00 UTC


021700Z 0218/0324 VRB05KT 9999 FEW020 SCT030 TX32/0306Z TN28/0222Z TN28/0322Z
TEMPO 0222/0303 VRB15G25KT 3000 TSRA SHRA FEW008CB SCT015 BKN040
BECMG 0300/0302 09015KT
TEMPO 0303/0307 3500 SHRA FEW010CB SCT015
TEMPO 0307/0313 08015G30KT 2500 TSRA SHRA FEW008CB SCT015 BKN040
TEMPO 0313/0318 3500 SHRA FEW010CB SCT015
TEMPO 0318/0324 03015G30KT 2500 TSRA SHRA FEW008CB SCT015 BKN040
VHHK FIR / Asia



MET'MAP, your aeronautical weather chart ! - Copyright ORBIFLY December 2007 - Disclaimer

ORBIFLY MET'MAP TEAM :

Programming & Development : Alexandra Zaïnal
Concept & original design : Baudouin d'Aumeries
Assistance for programming : Marc-Olivier Méhu
Technical & hardware support : Manuel Goepfert

Contact : metmap@orbifly.com




SOURCES & CREDITS :

   NOAA       Earth
Advisory